Time;durP1;ratioP1;P1;durP2;ratioP2;P2;SDS_P1;SDS_P2;PMS_P1;PMS_P2;Temp;Humidity;BMP_temperature;BMP_pressure;BME280_temperature;BME280_humidity;BME280_pressure;Samples;Min_cycle;Max_cycle;Signal;HPM_P1;HPM_P2
2022/04/21 00:00:30;;;;;;;7.03;6.43;;;6.90;98.70;;;;;;4985918;28;20444;-90
2022/04/21 00:02:55;;;;;;;7.40;6.70;;;6.90;99.00;;;;;;4966880;28;20448;-91
2022/04/21 00:05:22;;;;;;;8.37;6.23;;;7.00;99.50;;;;;;4962584;28;20555;-91
2022/04/21 00:07:48;;;;;;;7.97;6.67;;;7.00;99.70;;;;;;4973956;28;20211;-90
2022/04/21 00:10:16;;;;;;;6.17;5.63;;;7.00;99.90;;;;;;4983794;28;20533;-91
2022/04/21 00:12:43;;;;;;;7.10;6.30;;;6.80;99.90;;;;;;4966447;28;20480;-92
2022/04/21 00:15:10;;;;;;;7.30;6.60;;;6.80;99.90;;;;;;4968948;28;20679;-91
2022/04/21 00:17:36;;;;;;;6.70;6.00;;;6.70;99.90;;;;;;4979416;28;20448;-90
2022/04/21 00:20:23;;;;;;;8.60;7.37;;;6.80;99.90;;;;;;4972857;28;20440;-89
2022/04/21 00:25:33;;;;;;;7.50;6.80;;;6.50;99.90;;;;;;4985437;28;20477;-90
2022/04/21 00:27:59;;;;;;;7.30;6.60;;;6.60;99.90;;;;;;4960289;28;21223;-90
2022/04/21 00:30:26;;;;;;;6.83;6.30;;;6.60;99.90;;;;;;4963246;28;20438;-90
2022/04/21 00:32:53;;;;;;;7.23;6.53;;;6.50;99.90;;;;;;4961876;28;20483;-90
2022/04/21 00:35:19;;;;;;;7.53;6.83;;;6.50;99.90;;;;;;4977899;28;20472;-89
2022/04/21 00:37:55;;;;;;;7.17;6.53;;;6.40;99.90;;;;;;4962831;28;20448;-90
2022/04/21 00:40:24;;;;;;;7.77;6.47;;;6.50;99.90;;;;;;4962384;28;20178;-91
2022/04/21 00:42:50;;;;;;;7.43;6.60;;;6.40;99.90;;;;;;4979590;28;20438;-90
2022/04/21 00:45:17;;;;;;;7.63;6.53;;;6.50;99.90;;;;;;4960633;28;20454;-91
2022/04/21 00:47:46;;;;;;;7.10;6.60;;;6.50;99.90;;;;;;4961219;28;20188;-91
2022/04/21 00:50:23;;;;;;;8.43;7.67;;;6.50;99.90;;;;;;4961035;28;20448;-91
2022/04/21 00:52:52;;;;;;;9.17;7.17;;;6.50;99.90;;;;;;4964438;28;20507;-90
2022/04/21 00:55:21;;;;;;;7.43;6.67;;;6.50;99.90;;;;;;4964939;28;20829;-90
2022/04/21 00:57:47;;;;;;;6.77;6.17;;;6.60;99.90;;;;;;4960812;28;20440;-91
2022/04/21 01:00:27;;;;;;;7.00;6.40;;;6.70;99.90;;;;;;4968631;28;20447;-90
2022/04/21 01:02:54;;;;;;;6.73;6.13;;;6.70;99.90;;;;;;5060092;23;20490;-92
2022/04/21 01:05:30;;;;;;;6.67;6.17;;;6.70;99.90;;;;;;4987220;28;20458;-93
2022/04/21 01:07:58;;;;;;;6.90;6.20;;;6.60;99.90;;;;;;4984665;28;21089;-92
2022/04/21 01:10:26;;;;;;;6.83;6.23;;;6.50;99.90;;;;;;5006292;28;20444;-92
2022/04/21 01:13:01;;;;;;;6.50;5.90;;;6.50;99.90;;;;;;5004144;28;20476;-91
2022/04/21 01:15:27;;;;;;;7.00;6.40;;;6.60;99.90;;;;;;5000747;28;20438;-91
2022/04/21 01:17:54;;;;;;;6.67;6.07;;;6.50;99.90;;;;;;4990256;28;20780;-92
2022/04/21 01:20:23;;;;;;;6.73;6.13;;;6.40;99.90;;;;;;4978331;28;20183;-89
2022/04/21 01:22:50;;;;;;;6.70;6.00;;;6.30;99.90;;;;;;5012016;28;20530;-91
2022/04/21 01:25:25;;;;;;;8.07;6.93;;;6.20;99.90;;;;;;5005067;28;20522;-91
2022/04/21 01:28:10;;;;;;;7.10;6.40;;;6.10;99.90;;;;;;4984802;28;20526;-91
2022/04/21 01:30:35;;;;;;;7.83;6.93;;;6.10;99.90;;;;;;4992218;28;20457;-90
2022/04/21 01:33:01;;;;;;;6.70;6.10;;;6.20;99.90;;;;;;5003230;28;20474;-92
2022/04/21 01:35:26;;;;;;;7.07;6.47;;;6.20;99.90;;;;;;4986502;28;20184;-90
2022/04/21 01:43:20;;;;;;;7.33;6.60;;;5.90;99.90;;;;;;4996756;28;21048;-90
2022/04/21 01:45:46;;;;;;;7.30;6.70;;;5.90;99.90;;;;;;4983196;28;20450;-90
2022/04/21 01:48:11;;;;;;;7.10;6.50;;;5.80;99.90;;;;;;4992657;28;20836;-91
2022/04/21 01:50:40;;;;;;;7.10;6.50;;;5.70;99.90;;;;;;4975291;28;20226;-91
2022/04/21 01:53:05;;;;;;;7.13;6.53;;;5.70;99.90;;;;;;4975896;28;20220;-91
2022/04/21 01:55:40;;;;;;;7.57;6.80;;;5.60;99.90;;;;;;4975863;28;20448;-91
2022/04/21 01:58:11;;;;;;;6.97;6.37;;;5.60;99.90;;;;;;4975774;28;21555;-90
2022/04/21 02:00:37;;;;;;;9.30;7.43;;;5.60;99.90;;;;;;4991868;28;20476;-90
2022/04/21 02:03:02;;;;;;;7.80;7.00;;;5.70;99.90;;;;;;4978898;28;20539;-91
2022/04/21 02:05:28;;;;;;;7.27;6.57;;;5.70;99.90;;;;;;4978231;28;20199;-91
2022/04/21 02:07:54;;;;;;;9.27;7.40;;;5.70;99.90;;;;;;4972337;28;20200;-91
2022/04/21 02:10:23;;;;;;;7.60;6.80;;;5.60;99.90;;;;;;4975726;28;20191;-92
2022/04/21 02:12:49;;;;;;;8.03;7.33;;;5.80;99.90;;;;;;4992529;28;21487;-91
2022/04/21 02:15:17;;;;;;;7.90;7.10;;;5.90;99.90;;;;;;4966521;28;20444;-91
2022/04/21 02:17:44;;;;;;;7.60;7.00;;;5.80;99.90;;;;;;4974830;28;20889;-90
2022/04/21 02:20:10;;;;;;;7.43;6.83;;;5.80;99.90;;;;;;4979146;28;20477;-91
2022/04/21 02:22:36;;;;;;;7.23;6.63;;;5.70;99.90;;;;;;4990231;28;20457;-90
2022/04/21 02:25:09;;;;;;;8.03;7.00;;;5.60;99.90;;;;;;4993395;28;20441;-90
2022/04/21 02:27:37;;;;;;;8.33;6.70;;;5.60;99.90;;;;;;4975678;28;20202;-91
2022/04/21 02:30:04;;;;;;;7.53;6.93;;;5.50;99.90;;;;;;4983023;28;20800;-89
2022/04/21 02:32:29;;;;;;;8.10;7.40;;;5.50;99.90;;;;;;4989133;28;20497;-91
2022/04/21 02:34:55;;;;;;;8.90;8.00;;;5.50;99.90;;;;;;4994056;28;20435;-91
2022/04/21 02:37:21;;;;;;;9.43;8.40;;;5.50;99.90;;;;;;4992936;28;20238;-92
2022/04/21 02:39:47;;;;;;;8.30;7.50;;;5.30;99.90;;;;;;4993281;28;20212;-91
2022/04/21 02:42:13;;;;;;;8.63;7.83;;;5.40;99.90;;;;;;5013570;28;20458;-91
2022/04/21 02:44:52;;;;;;;8.57;7.77;;;5.50;99.90;;;;;;4992094;28;20461;-91
2022/04/21 02:47:18;;;;;;;8.80;7.90;;;5.70;99.90;;;;;;4975419;28;20300;-90
2022/04/21 02:49:47;;;;;;;9.80;8.80;;;5.70;99.90;;;;;;4979882;28;20524;-91
2022/04/21 02:52:14;;;;;;;7.67;7.07;;;5.70;99.90;;;;;;4976173;28;20580;-91
2022/04/21 02:57:27;;;;;;;8.77;7.97;;;5.80;99.90;;;;;;5000875;28;20535;-92
2022/04/21 02:59:58;;;;;;;8.80;7.90;;;5.70;99.90;;;;;;4997177;28;20425;-91
2022/04/21 03:02:25;;;;;;;9.93;9.03;;;5.60;99.90;;;;;;4992636;28;20479;-91
2022/04/21 03:04:52;;;;;;;8.33;7.50;;;5.50;99.90;;;;;;5005533;28;20443;-91
2022/04/21 03:07:18;;;;;;;7.47;6.83;;;5.50;99.90;;;;;;4992552;28;20582;-90
2022/04/21 03:09:44;;;;;;;8.30;7.47;;;5.50;99.90;;;;;;4975506;28;20580;-90
2022/04/21 03:12:10;;;;;;;8.97;7.50;;;5.40;99.90;;;;;;4975638;28;21000;-90
2022/04/21 03:14:42;;;;;;;8.53;7.83;;;5.40;99.90;;;;;;4990713;28;20451;-89
2022/04/21 03:17:11;;;;;;;7.73;6.87;;;5.50;99.90;;;;;;4987773;28;20674;-90
2022/04/21 03:19:38;;;;;;;8.67;7.90;;;5.40;99.90;;;;;;4968553;28;20502;-91
2022/04/21 03:24:48;;;;;;;8.87;8.07;;;5.20;99.90;;;;;;4992596;28;20535;-91
2022/04/21 03:27:14;;;;;;;9.13;8.23;;;5.10;99.90;;;;;;4974397;28;20761;-90
2022/04/21 03:29:40;;;;;;;9.27;8.47;;;4.90;99.90;;;;;;4976634;28;20793;-88
2022/04/21 03:32:09;;;;;;;9.33;8.37;;;4.80;99.90;;;;;;4976802;28;20224;-89
2022/04/21 03:34:41;;;;;;;10.00;9.00;;;4.70;99.90;;;;;;4971776;28;20444;-90
2022/04/21 03:37:12;;;;;;;10.17;9.20;;;4.50;99.90;;;;;;4993071;28;20545;-91
2022/04/21 03:39:39;;;;;;;9.40;8.60;;;4.60;99.90;;;;;;4975299;28;20445;-90
2022/04/21 03:42:08;;;;;;;10.67;9.67;;;4.80;99.90;;;;;;4975360;28;20751;-92
2022/04/21 03:44:40;;;;;;;10.20;9.13;;;4.80;99.90;;;;;;4995197;28;20456;-91
2022/04/21 03:47:06;;;;;;;10.50;9.47;;;4.80;99.90;;;;;;4979637;28;20482;-92
2022/04/21 03:49:32;;;;;;;13.50;12.30;;;4.70;99.90;;;;;;4975847;28;20452;-91
2022/04/21 03:51:57;;;;;;;10.83;9.80;;;4.80;99.90;;;;;;4980791;28;20513;-92
2022/04/21 03:54:24;;;;;;;9.57;8.77;;;4.90;99.90;;;;;;4975446;28;20181;-91
2022/04/21 03:57:09;;;;;;;10.20;9.30;;;4.90;99.90;;;;;;4995155;28;20185;-91
2022/04/21 03:59:38;;;;;;;9.97;8.97;;;4.80;99.90;;;;;;4994807;28;21220;-92
2022/04/21 04:02:06;;;;;;;10.23;9.00;;;4.80;99.90;;;;;;4997733;28;20554;-91
2022/04/21 04:04:33;;;;;;;9.97;9.10;;;4.90;99.90;;;;;;4991993;28;20440;-92
2022/04/21 04:12:32;;;;;;;10.50;9.47;;;5.10;99.90;;;;;;4987738;28;20530;-89
2022/04/21 04:14:58;;;;;;;8.90;8.10;;;5.10;99.90;;;;;;4983980;28;20448;-90
2022/04/21 04:17:24;;;;;;;9.67;8.70;;;5.00;99.90;;;;;;4970036;28;20440;-89
2022/04/21 04:19:49;;;;;;;11.63;8.70;;;4.90;99.90;;;;;;4968759;28;20511;-89
2022/04/21 04:22:15;;;;;;;10.33;9.33;;;4.90;99.90;;;;;;4986262;28;20181;-89
2022/04/21 04:24:41;;;;;;;9.63;8.73;;;4.80;99.90;;;;;;4972660;28;20464;-91
2022/04/21 04:27:06;;;;;;;10.27;9.33;;;4.80;99.90;;;;;;4993284;28;20186;-93
2022/04/21 04:29:32;;;;;;;10.50;9.57;;;4.70;99.90;;;;;;4988149;28;20450;-92
2022/04/21 04:32:00;;;;;;;9.50;8.60;;;4.60;99.90;;;;;;4992298;28;20224;-92
2022/04/21 04:34:26;;;;;;;9.60;8.60;;;4.60;99.90;;;;;;4985886;28;20185;-93
2022/04/21 04:36:52;;;;;;;10.50;9.50;;;4.60;99.90;;;;;;4999281;28;20814;-92
2022/04/21 04:39:17;;;;;;;12.60;9.93;;;4.60;99.90;;;;;;4989456;28;20185;-91
2022/04/21 04:44:27;;;;;;;10.07;9.17;;;4.60;99.90;;;;;;4989329;28;20682;-91
2022/04/21 04:46:53;;;;;;;10.10;9.17;;;4.50;99.90;;;;;;4974696;28;20448;-91
2022/04/21 04:49:18;;;;;;;11.20;9.97;;;4.40;99.90;;;;;;4983634;28;20188;-92
2022/04/21 04:51:44;;;;;;;12.87;11.67;;;4.40;99.90;;;;;;4965043;28;20205;-91
2022/04/21 04:54:12;;;;;;;11.47;10.37;;;4.30;99.90;;;;;;4971905;28;20703;-92
2022/04/21 04:56:39;;;;;;;11.70;10.60;;;4.30;99.90;;;;;;4970158;28;21579;-93
2022/04/21 04:59:05;;;;;;;10.53;9.53;;;4.40;99.90;;;;;;4974330;28;20448;-90
2022/04/21 05:01:34;;;;;;;12.13;10.83;;;4.60;99.90;;;;;;4992304;28;20442;-92
2022/04/21 05:04:13;;;;;;;11.33;10.13;;;4.70;99.90;;;;;;4980013;28;20448;-93
2022/04/21 05:06:54;;;;;;;11.80;10.70;;;4.80;99.90;;;;;;4972730;28;20456;-90
2022/04/21 05:09:22;;;;;;;12.50;11.23;;;4.90;99.90;;;;;;4985455;28;20447;-91
2022/04/21 05:11:53;;;;;;;11.80;10.70;;;5.00;99.90;;;;;;4989627;28;20523;-92
2022/04/21 05:14:19;;;;;;;13.57;12.37;;;5.10;99.90;;;;;;4972235;28;20475;-92
2022/04/21 05:16:44;;;;;;;12.67;11.50;;;5.10;99.90;;;;;;4972383;28;21054;-92
2022/04/21 05:19:16;;;;;;;12.07;10.87;;;5.20;99.90;;;;;;4984901;28;20554;-93
2022/04/21 05:21:53;;;;;;;12.77;11.50;;;5.30;99.90;;;;;;4987738;28;20211;-91
2022/04/21 05:24:19;;;;;;;12.63;11.43;;;5.40;99.90;;;;;;4973154;28;21297;-92
2022/04/21 05:26:48;;;;;;;13.97;12.57;;;5.60;99.90;;;;;;4978146;28;20189;-91
2022/04/21 05:32:16;;;;;;;12.30;11.10;;;5.70;99.90;;;;;;4988043;28;20555;-95
2022/04/21 05:34:42;;;;;;;13.13;11.83;;;5.70;99.90;;;;;;4989555;28;20439;-92
2022/04/21 05:37:08;;;;;;;13.13;11.83;;;5.80;99.90;;;;;;4980429;28;20444;-91
2022/04/21 05:39:34;;;;;;;12.40;11.03;;;5.70;99.90;;;;;;4983293;28;21553;-91
2022/04/21 05:41:59;;;;;;;13.10;11.80;;;5.90;99.90;;;;;;4980273;28;20535;-93
2022/04/21 05:44:27;;;;;;;12.97;11.67;;;6.00;99.90;;;;;;4979313;28;20224;-94
2022/04/21 05:46:53;;;;;;;12.73;11.43;;;6.20;99.90;;;;;;4992407;28;20185;-90
2022/04/21 05:49:19;;;;;;;12.90;11.60;;;6.40;99.90;;;;;;4989992;28;20444;-95
2022/04/21 05:51:48;;;;;;;12.47;11.27;;;6.60;99.90;;;;;;4977487;28;20472;-94
2022/04/21 05:54:14;;;;;;;13.03;11.83;;;6.60;99.90;;;;;;4976891;28;20453;-93
2022/04/21 05:56:40;;;;;;;14.10;12.70;;;6.80;99.90;;;;;;4987547;28;21194;-94
2022/04/21 05:59:06;;;;;;;14.60;11.60;;;6.90;99.90;;;;;;4997499;28;20440;-96
2022/04/21 06:01:31;;;;;;;14.00;12.70;;;7.00;99.90;;;;;;5008386;28;21261;-91
2022/04/21 06:03:57;;;;;;;14.37;12.97;;;7.20;99.90;;;;;;4974777;28;20226;-96
2022/04/21 06:06:24;;;;;;;12.73;11.53;;;7.30;99.90;;;;;;5000906;28;20547;-94
2022/04/21 06:08:50;;;;;;;16.47;12.70;;;7.50;99.90;;;;;;4966747;28;20451;-92
2022/04/21 06:11:16;;;;;;;16.83;15.00;;;7.60;99.90;;;;;;4983341;28;20216;-92
2022/04/21 06:13:42;;;;;;;15.83;14.23;;;7.60;99.90;;;;;;4993937;28;20221;-91
2022/04/21 06:16:09;;;;;;;16.97;15.17;;;7.60;99.90;;;;;;4977667;28;20509;-92
2022/04/21 06:18:36;;;;;;;15.83;14.23;;;7.50;99.90;;;;;;4981632;28;20455;-91
2022/04/21 06:21:02;;;;;;;16.23;14.37;;;7.50;99.90;;;;;;4972573;28;20447;-91
2022/04/21 06:23:28;;;;;;;15.10;13.67;;;7.60;99.90;;;;;;4979288;28;23044;-93
2022/04/21 06:25:58;;;;;;;14.90;13.50;;;7.50;99.90;;;;;;4983239;28;20539;-94
2022/04/21 06:28:27;;;;;;;15.50;13.90;;;7.60;99.90;;;;;;4993274;28;20849;-92
2022/04/21 06:30:58;;;;;;;16.20;14.70;;;7.60;99.90;;;;;;4997380;28;20938;-92
2022/04/21 06:33:23;;;;;;;15.00;13.60;;;7.70;99.90;;;;;;4995640;28;20487;-91
2022/04/21 06:35:50;;;;;;;16.50;14.90;;;7.80;99.90;;;;;;4992936;28;20209;-91
2022/04/21 06:38:16;;;;;;;15.93;14.33;;;7.80;99.90;;;;;;4977998;28;20188;-91
2022/04/21 06:40:42;;;;;;;16.57;14.87;;;7.90;99.90;;;;;;5001483;28;20447;-93
2022/04/21 06:48:39;;;;;;;18.17;16.33;;;8.20;99.90;;;;;;5007063;28;20454;-90
2022/04/21 06:51:05;;;;;;;15.03;13.67;;;8.50;99.90;;;;;;4976580;28;20523;-92
2022/04/21 06:53:34;;;;;;;17.60;14.13;;;8.60;99.90;;;;;;4976941;28;20483;-91
2022/04/21 06:56:00;;;;;;;19.50;15.17;;;8.80;99.90;;;;;;4981201;28;22493;-92
2022/04/21 06:58:25;;;;;;;16.77;15.07;;;8.80;99.90;;;;;;4996788;28;20452;-91
2022/04/21 07:00:51;;;;;;;15.93;14.40;;;8.80;99.90;;;;;;4992566;28;20208;-92
2022/04/21 07:03:17;;;;;;;17.13;15.33;;;8.90;99.90;;;;;;5007815;28;20197;-92
2022/04/21 07:05:42;;;;;;;16.30;14.70;;;9.10;99.90;;;;;;5005575;28;20216;-92
2022/04/21 07:08:08;;;;;;;14.50;13.00;;;9.20;99.90;;;;;;5005899;28;20190;-91
2022/04/21 07:10:34;;;;;;;15.80;14.30;;;9.40;99.90;;;;;;4999168;28;20720;-94
2022/04/21 07:13:12;;;;;;;16.50;14.80;;;9.50;99.90;;;;;;4994308;28;20265;-93
2022/04/21 07:15:41;;;;;;;15.83;14.17;;;9.50;99.90;;;;;;5011272;28;20461;-93
2022/04/21 07:18:16;;;;;;;15.90;14.40;;;9.60;99.90;;;;;;5008127;28;20501;-93
2022/04/21 07:20:42;;;;;;;15.57;14.07;;;9.80;99.90;;;;;;4995394;28;20510;-94
2022/04/21 07:23:08;;;;;;;16.40;14.80;;;9.90;99.90;;;;;;5010431;28;21100;-93
2022/04/21 07:25:34;;;;;;;15.13;13.67;;;10.10;99.90;;;;;;4998148;28;20262;-92
2022/04/21 07:27:59;;;;;;;15.90;14.40;;;10.20;99.90;;;;;;4982241;28;20439;-92
2022/04/21 07:30:25;;;;;;;16.23;14.60;;;10.50;99.90;;;;;;4992048;28;20570;-90
2022/04/21 07:32:50;;;;;;;16.00;14.57;;;10.60;98.80;;;;;;4980178;28;20221;-91
2022/04/21 07:35:18;;;;;;;16.30;14.70;;;10.70;99.90;;;;;;4995689;28;20213;-91
2022/04/21 07:37:50;;;;;;;18.97;15.30;;;10.60;99.10;;;;;;4996031;28;20193;-91
2022/04/21 07:40:20;;;;;;;16.10;14.40;;;10.70;99.90;;;;;;4992795;28;20440;-91
2022/04/21 07:42:57;;;;;;;16.70;15.10;;;11.00;99.40;;;;;;4984769;28;21080;-91
2022/04/21 07:45:22;;;;;;;20.13;18.17;;;11.10;98.30;;;;;;4978917;28;20582;-90
2022/04/21 07:47:50;;;;;;;17.07;15.20;;;11.00;99.30;;;;;;4978602;28;20950;-90
2022/04/21 07:50:16;;;;;;;19.53;15.97;;;11.50;99.10;;;;;;4981931;28;20247;-91
2022/04/21 07:55:27;;;;;;;16.40;14.80;;;11.40;98.00;;;;;;4995165;28;20188;-90
2022/04/21 07:57:55;;;;;;;15.70;14.10;;;11.20;97.50;;;;;;5000112;28;20443;-91
2022/04/21 08:00:22;;;;;;;16.77;15.10;;;11.30;98.40;;;;;;4995557;28;20527;-90
2022/04/21 08:02:51;;;;;;;17.10;15.40;;;11.50;97.50;;;;;;4973293;28;20472;-93
2022/04/21 08:05:27;;;;;;;15.53;13.70;;;12.50;98.60;;;;;;4996549;28;20943;-94
2022/04/21 08:07:52;;;;;;;15.40;13.80;;;11.70;96.40;;;;;;4978775;28;20898;-91
2022/04/21 08:10:27;;;;;;;16.73;15.10;;;11.70;97.00;;;;;;4979054;28;20526;-91
2022/04/21 08:12:59;;;;;;;15.73;14.17;;;11.70;96.80;;;;;;4990306;28;20251;-91
2022/04/21 08:15:30;;;;;;;15.57;14.07;;;11.90;96.90;;;;;;4982907;28;20962;-91
2022/04/21 08:18:01;;;;;;;15.60;14.10;;;11.90;96.10;;;;;;4978640;28;21528;-91
2022/04/21 08:20:33;;;;;;;16.90;15.13;;;11.90;97.10;;;;;;4991698;28;20451;-91
2022/04/21 08:23:10;;;;;;;16.13;14.13;;;12.00;96.30;;;;;;4973957;28;20549;-91
2022/04/21 08:34:09;;;;;;;14.97;12.33;;;12.50;94.40;;;;;;4982002;28;20447;-90
2022/04/21 08:36:35;;;;;;;13.30;12.10;;;12.50;94.30;;;;;;4979822;28;20443;-92
2022/04/21 08:39:01;;;;;;;13.20;11.90;;;12.60;93.80;;;;;;4976587;28;20243;-91
2022/04/21 08:41:28;;;;;;;14.07;12.67;;;12.60;93.50;;;;;;4978190;28;20597;-92
2022/04/21 08:43:58;;;;;;;13.70;12.50;;;13.10;93.10;;;;;;4994811;28;20361;-93
2022/04/21 08:46:25;;;;;;;14.50;13.20;;;13.20;93.80;;;;;;4989790;28;20451;-93
2022/04/21 08:48:52;;;;;;;15.93;12.43;;;13.30;93.40;;;;;;4981588;28;20432;-94
2022/04/21 08:51:23;;;;;;;13.50;12.30;;;13.40;91.90;;;;;;4979624;28;20448;-93
2022/04/21 08:53:50;;;;;;;14.17;13.00;;;13.70;91.90;;;;;;4977482;28;20521;-92
2022/04/21 08:56:16;;;;;;;14.37;13.07;;;13.70;92.50;;;;;;4982544;28;20428;-93
2022/04/21 08:58:42;;;;;;;15.17;13.57;;;13.40;92.30;;;;;;4979298;28;20974;-93
2022/04/21 09:01:08;;;;;;;15.07;13.67;;;13.30;93.70;;;;;;4984970;28;20181;-93
2022/04/21 09:03:35;;;;;;;14.07;12.77;;;13.50;93.30;;;;;;4977827;28;20282;-94
2022/04/21 09:06:00;;;;;;;12.53;11.43;;;13.50;92.50;;;;;;4995151;28;20486;-93
2022/04/21 09:08:26;;;;;;;13.63;12.43;;;13.70;91.60;;;;;;4981103;28;20475;-91
2022/04/21 09:11:03;;;;;;;13.00;11.60;;;13.70;93.30;;;;;;4997691;28;20876;-91
2022/04/21 09:13:49;;;;;;;12.80;11.60;;;13.80;92.10;;;;;;4977868;28;20223;-91
2022/04/21 09:16:20;;;;;;;12.57;11.40;;;13.80;91.70;;;;;;4983680;28;20740;-92
2022/04/21 09:18:49;;;;;;;12.90;11.70;;;14.10;91.50;;;;;;4977055;28;20495;-92
2022/04/21 09:21:16;;;;;;;12.00;11.00;;;14.30;91.70;;;;;;4982599;28;20468;-92
2022/04/21 09:23:47;;;;;;;13.17;11.93;;;14.40;87.90;;;;;;4992296;28;20818;-92
2022/04/21 09:26:21;;;;;;;12.13;10.83;;;14.60;90.80;;;;;;4975999;28;20796;-91
2022/04/21 09:28:57;;;;;;;12.60;11.50;;;14.50;90.20;;;;;;4975195;28;20448;-92
2022/04/21 09:31:32;;;;;;;12.23;11.07;;;14.70;90.10;;;;;;4985919;28;20430;-92
2022/04/21 09:34:00;;;;;;;11.70;10.60;;;14.90;90.20;;;;;;4998347;28;20482;-93
2022/04/21 09:36:32;;;;;;;11.30;10.30;;;14.70;84.40;;;;;;4992585;28;20452;-93
2022/04/21 09:39:02;;;;;;;11.40;10.40;;;14.20;84.00;;;;;;4995629;28;20440;-92
2022/04/21 09:41:34;;;;;;;12.17;11.00;;;14.30;90.00;;;;;;4994154;28;20436;-93
2022/04/21 09:47:06;;;;;;;12.53;11.43;;;15.00;85.60;;;;;;5003381;28;20493;-93
2022/04/21 09:50:02;;;;;;;12.77;11.47;;;15.00;86.80;;;;;;4984111;28;20475;-93
2022/04/21 09:52:31;;;;;;;12.50;11.40;;;15.20;88.20;;;;;;4976310;28;20484;-92
2022/04/21 09:54:59;;;;;;;12.03;11.03;;;15.50;89.90;;;;;;4977302;28;21063;-92
2022/04/21 09:57:39;;;;;;;12.80;10.57;;;15.40;87.00;;;;;;4980916;28;20444;-91
2022/04/21 10:00:29;;;;;;;10.93;10.03;;;15.50;82.50;;;;;;4975360;28;20458;-92
2022/04/21 10:03:05;;;;;;;10.90;9.90;;;15.80;82.80;;;;;;4981177;28;20507;-92
2022/04/21 10:05:57;;;;;;;10.90;10.00;;;15.60;85.80;;;;;;4994909;28;20435;-93
2022/04/21 10:08:29;;;;;;;10.87;9.97;;;15.60;83.50;;;;;;4991892;28;20447;-92
2022/04/21 10:11:10;;;;;;;10.00;9.20;;;15.60;85.10;;;;;;4991566;28;21118;-91
2022/04/21 10:13:44;;;;;;;10.80;9.90;;;16.00;81.90;;;;;;4987015;28;20479;-91
2022/04/21 10:16:32;;;;;;;11.70;10.70;;;16.00;77.30;;;;;;4975629;28;20452;-92
2022/04/21 10:19:02;;;;;;;10.00;9.10;;;15.80;79.70;;;;;;4997933;28;20482;-92
2022/04/21 10:21:51;;;;;;;10.07;8.27;;;16.90;82.40;;;;;;4993713;28;21028;-92
2022/04/21 10:24:24;;;;;;;10.57;9.43;;;17.80;79.10;;;;;;4981726;28;20452;-91
2022/04/21 10:26:51;;;;;;;11.97;10.80;;;17.20;78.30;;;;;;4972569;28;20436;-92
2022/04/21 10:29:21;;;;;;;9.60;8.90;;;17.70;77.20;;;;;;4979197;28;20494;-91
2022/04/21 10:32:15;;;;;;;10.70;9.80;;;17.90;79.00;;;;;;4976296;28;20439;-91
2022/04/21 10:34:59;;;;;;;9.97;9.17;;;17.90;72.10;;;;;;4997187;28;20490;-91
2022/04/21 10:37:32;;;;;;;11.40;10.23;;;17.80;73.70;;;;;;5001871;28;20439;-91
2022/04/21 10:40:26;;;;;;;10.20;9.23;;;17.70;82.00;;;;;;4991208;28;20546;-91
2022/04/21 10:43:04;;;;;;;11.13;10.23;;;17.90;77.80;;;;;;4999782;28;20941;-91
2022/04/21 10:45:34;;;;;;;10.37;9.47;;;17.70;78.10;;;;;;4998663;28;20451;-91
2022/04/21 10:48:15;;;;;;;9.47;8.67;;;17.80;79.90;;;;;;4977310;28;20487;-92
2022/04/21 10:50:43;;;;;;;10.23;9.23;;;18.00;73.30;;;;;;4979800;28;20466;-91
2022/04/21 10:59:07;;;;;;;8.87;8.03;;;17.90;77.00;;;;;;5009523;28;20486;-91
2022/04/21 11:01:38;;;;;;;8.70;8.00;;;18.50;72.60;;;;;;5012017;28;20450;-93
2022/04/21 11:04:09;;;;;;;8.43;7.80;;;18.70;76.30;;;;;;4981831;28;20452;-92
2022/04/21 11:07:11;;;;;;;8.30;7.70;;;18.40;77.40;;;;;;4995319;28;20247;-92
2022/04/21 11:09:46;;;;;;;8.20;7.57;;;18.00;73.70;;;;;;4973830;28;20539;-91
2022/04/21 11:12:15;;;;;;;7.40;6.90;;;17.70;72.60;;;;;;4981013;28;24293;-92
2022/04/21 11:14:40;;;;;;;7.40;6.80;;;17.90;71.70;;;;;;5002550;28;20527;-92
2022/04/21 11:17:10;;;;;;;7.80;7.00;;;17.90;75.20;;;;;;4997513;28;20527;-91
2022/04/21 11:19:36;;;;;;;6.70;6.20;;;17.60;76.30;;;;;;4998778;28;20185;-90
2022/04/21 11:22:10;;;;;;;6.53;6.00;;;17.20;74.60;;;;;;4997006;28;20486;-92
2022/04/21 11:24:54;;;;;;;25.70;7.67;;;17.50;75.00;;;;;;4982086;28;20454;-92
2022/04/21 11:27:22;;;;;;;5.40;5.00;;;17.60;73.10;;;;;;4995489;28;20428;-91
2022/04/21 11:29:47;;;;;;;6.13;5.63;;;17.90;79.10;;;;;;4973833;28;20435;-92
2022/04/21 11:32:17;;;;;;;6.60;6.10;;;17.90;74.80;;;;;;4982674;28;20475;-91
2022/04/21 11:35:16;;;;;;;7.10;5.47;;;18.30;77.90;;;;;;4981748;28;20330;-92
2022/04/21 11:37:57;;;;;;;6.03;5.63;;;18.60;74.20;;;;;;4976842;28;20451;-92
2022/04/21 11:40:37;;;;;;;7.50;6.90;;;18.50;70.50;;;;;;4989334;28;20949;-92
2022/04/21 11:43:06;;;;;;;7.40;6.80;;;18.00;72.50;;;;;;4996062;28;20446;-90
2022/04/21 11:45:36;;;;;;;6.47;6.00;;;17.40;75.30;;;;;;4973694;28;21877;-92
2022/04/21 11:48:13;;;;;;;5.60;5.20;;;17.40;78.90;;;;;;4996569;28;20448;-92
2022/04/21 11:50:51;;;;;;;6.80;5.73;;;18.40;69.30;;;;;;4998008;28;20461;-92
2022/04/21 11:53:28;;;;;;;5.73;5.33;;;19.10;66.90;;;;;;4990974;28;20553;-92
2022/04/21 11:55:59;;;;;;;7.23;6.30;;;19.50;74.20;;;;;;4977044;28;20464;-92
2022/04/21 11:58:32;;;;;;;16.13;14.87;;;19.50;71.10;;;;;;4970930;28;20906;-92
2022/04/21 12:06:52;;;;;;;6.60;6.00;;;19.50;69.30;;;;;;4998385;28;20451;-91
2022/04/21 12:09:20;;;;;;;4.80;4.13;;;19.50;72.00;;;;;;4989791;28;20448;-91
2022/04/21 12:11:51;;;;;;;4.47;3.73;;;19.70;70.50;;;;;;5008582;28;20861;-92
2022/04/21 12:14:21;;;;;;;5.40;4.90;;;19.80;68.90;;;;;;4978118;28;20948;-92
2022/04/21 12:16:53;;;;;;;6.00;5.40;;;19.90;67.50;;;;;;4975923;28;20964;-92
2022/04/21 12:19:19;;;;;;;8.10;7.33;;;19.90;63.50;;;;;;4982969;28;20478;-92
2022/04/21 12:22:07;;;;;;;5.87;5.47;;;19.90;66.60;;;;;;5003021;28;20997;-92
2022/04/21 12:24:56;;;;;;;5.37;4.97;;;19.40;66.90;;;;;;4996477;28;20195;-92
2022/04/21 12:27:24;;;;;;;4.70;4.30;;;19.90;67.70;;;;;;5002868;28;20439;-92
2022/04/21 12:29:52;;;;;;;4.77;4.47;;;20.70;63.10;;;;;;5005016;28;20432;-93
2022/04/21 12:32:19;;;;;;;5.47;5.07;;;20.20;66.90;;;;;;4996860;28;20679;-92
2022/04/21 12:34:45;;;;;;;5.50;5.13;;;20.80;69.10;;;;;;4994507;28;20505;-91
2022/04/21 12:37:11;;;;;;;6.67;5.80;;;20.00;66.10;;;;;;4963869;28;21233;-93
2022/04/21 12:39:37;;;;;;;6.00;5.60;;;20.60;59.70;;;;;;4980191;28;20177;-93
2022/04/21 12:42:03;;;;;;;5.93;5.43;;;19.60;66.50;;;;;;4982633;28;20191;-91
2022/04/21 12:44:34;;;;;;;5.43;4.93;;;19.60;67.50;;;;;;4981286;28;20442;-92
2022/04/21 12:47:13;;;;;;;5.17;4.77;;;20.10;67.10;;;;;;4979610;28;20444;-92
2022/04/21 12:49:58;;;;;;;5.13;4.73;;;20.70;63.70;;;;;;4977415;28;20446;-92
2022/04/21 12:52:31;;;;;;;4.57;4.27;;;20.90;63.90;;;;;;4983112;28;20550;-92
2022/04/21 12:54:59;;;;;;;4.93;4.53;;;21.60;59.30;;;;;;4996395;28;20510;-92
2022/04/21 12:57:27;;;;;;;4.50;4.20;;;21.60;64.50;;;;;;4971727;28;20495;-92
2022/04/21 13:00:40;;;;;;;5.20;4.80;;;22.00;60.50;;;;;;4998598;28;20562;-92
2022/04/21 13:03:07;;;;;;;5.50;5.10;;;20.10;60.60;;;;;;4988563;28;20456;-91
2022/04/21 13:05:33;;;;;;;5.73;5.30;;;19.30;63.10;;;;;;4975572;28;20565;-92
2022/04/21 13:07:59;;;;;;;5.60;5.10;;;18.80;65.80;;;;;;4985792;28;20436;-90
2022/04/21 13:10:26;;;;;;;5.87;5.37;;;18.80;62.30;;;;;;4997260;28;20980;-90
2022/04/21 13:12:52;;;;;;;5.27;4.77;;;19.60;61.10;;;;;;4979655;28;20217;-93
2022/04/21 13:15:17;;;;;;;5.37;5.07;;;19.80;64.70;;;;;;4994146;28;20453;-91
2022/04/21 13:17:44;;;;;;;6.10;5.43;;;20.00;65.60;;;;;;4992662;28;20197;-91
2022/04/21 13:21:52;;;;;;;4.53;4.23;;;20.40;65.10;;;;;;4987196;28;20287;-92
2022/04/21 13:22:57;;;;;;;5.10;4.73;;;20.60;65.50;;;;;;4997850;28;20628;-92
2022/04/21 13:25:24;;;;;;;5.97;5.40;;;21.20;60.70;;;;;;5005457;28;20805;-92
2022/04/21 13:27:52;;;;;;;6.63;5.70;;;21.40;62.30;;;;;;4981108;28;20462;-91
2022/04/21 13:30:19;;;;;;;5.00;4.60;;;21.30;64.30;;;;;;4988311;28;20182;-91
2022/04/21 13:35:29;;;;;;;5.03;4.53;;;22.00;60.20;;;;;;5004273;28;20454;-92
2022/04/21 13:37:55;;;;;;;5.40;5.00;;;21.40;64.20;;;;;;4965434;28;20479;-92
2022/04/21 13:40:21;;;;;;;4.23;3.93;;;21.30;63.60;;;;;;4985676;28;20494;-93
2022/04/21 13:42:48;;;;;;;4.03;3.73;;;21.90;63.10;;;;;;4991445;28;20311;-92
2022/04/21 13:45:15;;;;;;;4.53;4.13;;;22.10;59.30;;;;;;4979899;28;20276;-90
2022/04/21 13:47:41;;;;;;;5.40;5.00;;;21.00;58.90;;;;;;4980539;28;20444;-92
2022/04/21 13:50:07;;;;;;;4.73;4.37;;;19.80;61.30;;;;;;4979761;28;21095;-91
2022/04/21 13:52:37;;;;;;;4.60;4.30;;;18.80;66.40;;;;;;4969558;28;20231;-92
2022/04/21 13:55:03;;;;;;;4.80;4.40;;;18.60;67.20;;;;;;4996622;28;20475;-92